sensor_id;sensor_type;location;lat;lon;timestamp;temperature;humidity
78514;SHT31;67814;51.976;5.810;2023-04-24T00:02:14;12.4;73.2
78514;SHT31;67814;51.976;5.810;2023-04-24T00:04:43;12.5;72.7
78514;SHT31;67814;51.976;5.810;2023-04-24T00:07:13;12.5;72.5
78514;SHT31;67814;51.976;5.810;2023-04-24T00:09:46;12.5;72.9
78514;SHT31;67814;51.976;5.810;2023-04-24T00:12:15;12.5;72.5
78514;SHT31;67814;51.976;5.810;2023-04-24T00:14:45;12.5;72.4
78514;SHT31;67814;51.976;5.810;2023-04-24T00:17:15;12.5;72.2
78514;SHT31;67814;51.976;5.810;2023-04-24T00:19:47;12.5;72.4
78514;SHT31;67814;51.976;5.810;2023-04-24T00:22:18;12.5;72.6
78514;SHT31;67814;51.976;5.810;2023-04-24T00:24:48;12.6;72.1
78514;SHT31;67814;51.976;5.810;2023-04-24T00:27:17;12.6;72.5
78514;SHT31;67814;51.976;5.810;2023-04-24T00:29:47;12.6;72.2
78514;SHT31;67814;51.976;5.810;2023-04-24T00:32:17;12.6;72.4
78514;SHT31;67814;51.976;5.810;2023-04-24T00:34:47;12.6;72.0
78514;SHT31;67814;51.976;5.810;2023-04-24T00:37:17;12.6;71.9
78514;SHT31;67814;51.976;5.810;2023-04-24T00:39:47;12.6;71.7
78514;SHT31;67814;51.976;5.810;2023-04-24T00:42:16;12.7;71.5
78514;SHT31;67814;51.976;5.810;2023-04-24T00:44:47;12.7;71.5
78514;SHT31;67814;51.976;5.810;2023-04-24T00:47:16;12.6;71.4
78514;SHT31;67814;51.976;5.810;2023-04-24T00:49:49;12.6;72.0
78514;SHT31;67814;51.976;5.810;2023-04-24T00:52:19;12.6;71.7
78514;SHT31;67814;51.976;5.810;2023-04-24T00:54:51;12.6;72.3
78514;SHT31;67814;51.976;5.810;2023-04-24T00:57:23;12.6;72.3
78514;SHT31;67814;51.976;5.810;2023-04-24T00:59:53;12.6;72.4
78514;SHT31;67814;51.976;5.810;2023-04-24T01:02:23;12.6;72.5
78514;SHT31;67814;51.976;5.810;2023-04-24T01:04:52;12.6;72.6
78514;SHT31;67814;51.976;5.810;2023-04-24T01:07:22;12.6;72.7
78514;SHT31;67814;51.976;5.810;2023-04-24T01:09:54;12.6;72.7
78514;SHT31;67814;51.976;5.810;2023-04-24T01:12:24;12.6;72.5
78514;SHT31;67814;51.976;5.810;2023-04-24T01:14:54;12.6;72.6
78514;SHT31;67814;51.976;5.810;2023-04-24T01:17:24;12.6;72.6
78514;SHT31;67814;51.976;5.810;2023-04-24T01:19:54;12.6;72.9
78514;SHT31;67814;51.976;5.810;2023-04-24T01:22:26;12.6;72.8
78514;SHT31;67814;51.976;5.810;2023-04-24T01:24:56;12.6;72.7
78514;SHT31;67814;51.976;5.810;2023-04-24T01:27:27;12.6;72.7
78514;SHT31;67814;51.976;5.810;2023-04-24T01:29:58;12.6;72.6
78514;SHT31;67814;51.976;5.810;2023-04-24T01:32:28;12.5;73.2
78514;SHT31;67814;51.976;5.810;2023-04-24T01:34:58;12.5;73.2
78514;SHT31;67814;51.976;5.810;2023-04-24T01:37:27;12.5;73.3
78514;SHT31;67814;51.976;5.810;2023-04-24T01:39:59;12.5;73.4
78514;SHT31;67814;51.976;5.810;2023-04-24T01:42:29;12.5;73.2
78514;SHT31;67814;51.976;5.810;2023-04-24T01:44:59;12.5;73.4
78514;SHT31;67814;51.976;5.810;2023-04-24T01:47:31;12.4;73.4
78514;SHT31;67814;51.976;5.810;2023-04-24T01:50:02;12.4;73.7
78514;SHT31;67814;51.976;5.810;2023-04-24T01:52:32;12.4;73.9
78514;SHT31;67814;51.976;5.810;2023-04-24T01:55:04;12.4;73.8
78514;SHT31;67814;51.976;5.810;2023-04-24T01:57:35;12.3;74.1
78514;SHT31;67814;51.976;5.810;2023-04-24T02:00:06;12.3;74.5
78514;SHT31;67814;51.976;5.810;2023-04-24T02:02:36;12.3;74.5
78514;SHT31;67814;51.976;5.810;2023-04-24T02:05:08;12.3;74.5
78514;SHT31;67814;51.976;5.810;2023-04-24T02:07:38;12.3;74.5
78514;SHT31;67814;51.976;5.810;2023-04-24T02:10:09;12.3;74.7
78514;SHT31;67814;51.976;5.810;2023-04-24T02:12:38;12.3;75.0
78514;SHT31;67814;51.976;5.810;2023-04-24T02:15:09;12.3;75.2
78514;SHT31;67814;51.976;5.810;2023-04-24T02:17:39;12.3;75.3
78514;SHT31;67814;51.976;5.810;2023-04-24T02:20:11;12.3;75.3
78514;SHT31;67814;51.976;5.810;2023-04-24T02:22:41;12.3;75.6
78514;SHT31;67814;51.976;5.810;2023-04-24T02:25:11;12.2;75.6
78514;SHT31;67814;51.976;5.810;2023-04-24T02:27:40;12.2;75.7
78514;SHT31;67814;51.976;5.810;2023-04-24T02:30:10;12.2;75.8
78514;SHT31;67814;51.976;5.810;2023-04-24T02:32:40;12.2;75.7
78514;SHT31;67814;51.976;5.810;2023-04-24T02:35:12;12.2;75.7
78514;SHT31;67814;51.976;5.810;2023-04-24T02:37:42;12.2;75.6
78514;SHT31;67814;51.976;5.810;2023-04-24T02:40:12;12.2;75.2
78514;SHT31;67814;51.976;5.810;2023-04-24T02:42:41;12.2;75.2
78514;SHT31;67814;51.976;5.810;2023-04-24T02:45:13;12.2;75.4
78514;SHT31;67814;51.976;5.810;2023-04-24T02:47:42;12.2;75.2
78514;SHT31;67814;51.976;5.810;2023-04-24T02:50:14;12.2;75.3
78514;SHT31;67814;51.976;5.810;2023-04-24T02:52:44;12.1;75.4
78514;SHT31;67814;51.976;5.810;2023-04-24T02:55:13;12.1;75.6
78514;SHT31;67814;51.976;5.810;2023-04-24T02:57:43;12.1;75.7
78514;SHT31;67814;51.976;5.810;2023-04-24T03:00:13;12.1;75.8
78514;SHT31;67814;51.976;5.810;2023-04-24T03:02:43;12.1;75.0
78514;SHT31;67814;51.976;5.810;2023-04-24T03:05:12;12.1;75.0
78514;SHT31;67814;51.976;5.810;2023-04-24T03:07:42;12.1;74.9
78514;SHT31;67814;51.976;5.810;2023-04-24T03:10:14;12.1;75.4
78514;SHT31;67814;51.976;5.810;2023-04-24T03:12:44;12.1;75.7
78514;SHT31;67814;51.976;5.810;2023-04-24T03:15:16;12.1;75.5
78514;SHT31;67814;51.976;5.810;2023-04-24T03:17:46;12.1;76.1
78514;SHT31;67814;51.976;5.810;2023-04-24T03:20:15;12.1;76.1
78514;SHT31;67814;51.976;5.810;2023-04-24T03:22:45;12.1;76.3
78514;SHT31;67814;51.976;5.810;2023-04-24T03:25:14;12.1;76.3
78514;SHT31;67814;51.976;5.810;2023-04-24T03:27:44;12.1;75.9
78514;SHT31;67814;51.976;5.810;2023-04-24T03:30:14;12.0;75.7
78514;SHT31;67814;51.976;5.810;2023-04-24T03:32:43;12.0;75.7
78514;SHT31;67814;51.976;5.810;2023-04-24T03:35:15;12.0;75.7
78514;SHT31;67814;51.976;5.810;2023-04-24T03:37:44;12.0;75.9
78514;SHT31;67814;51.976;5.810;2023-04-24T03:40:14;12.0;75.9
78514;SHT31;67814;51.976;5.810;2023-04-24T03:42:43;12.0;76.0
78514;SHT31;67814;51.976;5.810;2023-04-24T03:45:13;12.0;75.8
78514;SHT31;67814;51.976;5.810;2023-04-24T03:47:43;12.0;75.9
78514;SHT31;67814;51.976;5.810;2023-04-24T03:50:12;12.0;75.7
78514;SHT31;67814;51.976;5.810;2023-04-24T03:52:42;12.0;75.6
78514;SHT31;67814;51.976;5.810;2023-04-24T03:55:13;12.0;75.2
78514;SHT31;67814;51.976;5.810;2023-04-24T03:57:45;12.0;75.3
78514;SHT31;67814;51.976;5.810;2023-04-24T04:00:17;12.0;75.2
78514;SHT31;67814;51.976;5.810;2023-04-24T04:02:48;11.9;74.9
78514;SHT31;67814;51.976;5.810;2023-04-24T04:05:18;11.9;75.3
78514;SHT31;67814;51.976;5.810;2023-04-24T04:07:47;11.9;75.1
78514;SHT31;67814;51.976;5.810;2023-04-24T04:10:17;11.9;75.3
78514;SHT31;67814;51.976;5.810;2023-04-24T04:12:46;11.9;75.3
78514;SHT31;67814;51.976;5.810;2023-04-24T04:15:16;11.9;74.4
78514;SHT31;67814;51.976;5.810;2023-04-24T04:17:46;11.9;74.6
78514;SHT31;67814;51.976;5.810;2023-04-24T04:20:18;11.9;74.3
78514;SHT31;67814;51.976;5.810;2023-04-24T04:22:47;11.9;73.9
78514;SHT31;67814;51.976;5.810;2023-04-24T04:25:17;11.9;73.9
78514;SHT31;67814;51.976;5.810;2023-04-24T04:27:47;11.9;74.0
78514;SHT31;67814;51.976;5.810;2023-04-24T04:30:18;11.9;73.6
78514;SHT31;67814;51.976;5.810;2023-04-24T04:32:48;11.9;74.0
78514;SHT31;67814;51.976;5.810;2023-04-24T04:35:18;11.8;73.5
78514;SHT31;67814;51.976;5.810;2023-04-24T04:37:48;11.8;73.8
78514;SHT31;67814;51.976;5.810;2023-04-24T04:40:18;11.8;73.6
78514;SHT31;67814;51.976;5.810;2023-04-24T04:42:48;11.8;73.8
78514;SHT31;67814;51.976;5.810;2023-04-24T04:45:20;11.8;74.6
78514;SHT31;67814;51.976;5.810;2023-04-24T04:47:53;11.7;74.4
78514;SHT31;67814;51.976;5.810;2023-04-24T04:50:24;11.7;74.4
78514;SHT31;67814;51.976;5.810;2023-04-24T04:52:54;11.7;74.8
78514;SHT31;67814;51.976;5.810;2023-04-24T04:55:24;11.7;75.0
78514;SHT31;67814;51.976;5.810;2023-04-24T04:57:53;11.7;74.4
78514;SHT31;67814;51.976;5.810;2023-04-24T05:00:24;11.6;74.9
78514;SHT31;67814;51.976;5.810;2023-04-24T05:02:56;11.6;74.9
78514;SHT31;67814;51.976;5.810;2023-04-24T05:05:25;11.6;75.3
78514;SHT31;67814;51.976;5.810;2023-04-24T05:07:55;11.6;75.4
78514;SHT31;67814;51.976;5.810;2023-04-24T05:10:24;11.6;75.1
78514;SHT31;67814;51.976;5.810;2023-04-24T05:12:54;11.6;75.3
78514;SHT31;67814;51.976;5.810;2023-04-24T05:15:24;11.6;75.7
78514;SHT31;67814;51.976;5.810;2023-04-24T05:17:53;11.6;75.4
78514;SHT31;67814;51.976;5.810;2023-04-24T05:20:23;11.6;76.0
78514;SHT31;67814;51.976;5.810;2023-04-24T05:22:55;11.6;75.7
78514;SHT31;67814;51.976;5.810;2023-04-24T05:25:25;11.6;75.4
78514;SHT31;67814;51.976;5.810;2023-04-24T05:27:54;11.6;75.6
78514;SHT31;67814;51.976;5.810;2023-04-24T05:30:24;11.6;75.8
78514;SHT31;67814;51.976;5.810;2023-04-24T05:32:54;11.6;75.5
78514;SHT31;67814;51.976;5.810;2023-04-24T05:35:23;11.6;75.4
78514;SHT31;67814;51.976;5.810;2023-04-24T05:37:53;11.7;75.6
78514;SHT31;67814;51.976;5.810;2023-04-24T05:40:23;11.7;75.3
78514;SHT31;67814;51.976;5.810;2023-04-24T05:42:52;11.7;75.3
78514;SHT31;67814;51.976;5.810;2023-04-24T05:45:22;11.8;75.4
78514;SHT31;67814;51.976;5.810;2023-04-24T05:47:52;11.8;75.6
78514;SHT31;67814;51.976;5.810;2023-04-24T05:50:22;11.8;75.2
78514;SHT31;67814;51.976;5.810;2023-04-24T05:52:52;11.8;75.0
78514;SHT31;67814;51.976;5.810;2023-04-24T05:55:23;11.9;75.4
78514;SHT31;67814;51.976;5.810;2023-04-24T05:57:53;11.9;75.0
78514;SHT31;67814;51.976;5.810;2023-04-24T06:00:25;11.9;75.2
78514;SHT31;67814;51.976;5.810;2023-04-24T06:02:55;11.9;75.1
78514;SHT31;67814;51.976;5.810;2023-04-24T06:05:26;11.9;74.4
78514;SHT31;67814;51.976;5.810;2023-04-24T06:07:56;12.0;74.7
78514;SHT31;67814;51.976;5.810;2023-04-24T06:10:26;12.0;74.3
78514;SHT31;67814;51.976;5.810;2023-04-24T06:12:55;12.0;75.2
78514;SHT31;67814;51.976;5.810;2023-04-24T06:15:30;12.0;75.6
78514;SHT31;67814;51.976;5.810;2023-04-24T06:18:00;12.0;75.1
78514;SHT31;67814;51.976;5.810;2023-04-24T06:20:30;12.1;75.2
78514;SHT31;67814;51.976;5.810;2023-04-24T06:22:59;12.1;75.7
78514;SHT31;67814;51.976;5.810;2023-04-24T06:25:29;12.2;75.5
78514;SHT31;67814;51.976;5.810;2023-04-24T06:27:59;12.2;74.6
78514;SHT31;67814;51.976;5.810;2023-04-24T06:30:29;12.2;75.3
78514;SHT31;67814;51.976;5.810;2023-04-24T06:32:58;12.3;75.1
78514;SHT31;67814;51.976;5.810;2023-04-24T06:35:28;12.3;75.2
78514;SHT31;67814;51.976;5.810;2023-04-24T06:37:57;12.4;74.6
78514;SHT31;67814;51.976;5.810;2023-04-24T06:40:27;12.4;74.6
78514;SHT31;67814;51.976;5.810;2023-04-24T06:42:57;12.5;74.4
78514;SHT31;67814;51.976;5.810;2023-04-24T06:45:27;12.5;74.2
78514;SHT31;67814;51.976;5.810;2023-04-24T06:47:57;12.5;73.9
78514;SHT31;67814;51.976;5.810;2023-04-24T06:50:26;12.6;73.9
78514;SHT31;67814;51.976;5.810;2023-04-24T06:52:56;12.6;73.9
78514;SHT31;67814;51.976;5.810;2023-04-24T06:55:26;12.6;73.9
78514;SHT31;67814;51.976;5.810;2023-04-24T06:57:55;12.6;73.2
78514;SHT31;67814;51.976;5.810;2023-04-24T07:00:25;12.7;73.5
78514;SHT31;67814;51.976;5.810;2023-04-24T07:02:54;12.7;72.4
78514;SHT31;67814;51.976;5.810;2023-04-24T07:05:24;12.7;73.1
78514;SHT31;67814;51.976;5.810;2023-04-24T07:07:55;12.7;72.8
78514;SHT31;67814;51.976;5.810;2023-04-24T07:10:25;12.7;71.6
78514;SHT31;67814;51.976;5.810;2023-04-24T07:12:55;12.7;71.8
78514;SHT31;67814;51.976;5.810;2023-04-24T07:15:25;12.7;71.8
78514;SHT31;67814;51.976;5.810;2023-04-24T07:17:55;12.7;71.2
78514;SHT31;67814;51.976;5.810;2023-04-24T07:20:25;12.6;71.2
78514;SHT31;67814;51.976;5.810;2023-04-24T07:22:54;12.5;71.7
78514;SHT31;67814;51.976;5.810;2023-04-24T07:25:24;12.5;71.5
78514;SHT31;67814;51.976;5.810;2023-04-24T07:27:53;12.4;71.8
78514;SHT31;67814;51.976;5.810;2023-04-24T07:30:23;12.4;72.5
78514;SHT31;67814;51.976;5.810;2023-04-24T07:32:53;12.3;72.9
78514;SHT31;67814;51.976;5.810;2023-04-24T07:35:22;12.3;72.5
78514;SHT31;67814;51.976;5.810;2023-04-24T07:37:53;12.3;72.1
78514;SHT31;67814;51.976;5.810;2023-04-24T07:40:23;12.2;72.3
78514;SHT31;67814;51.976;5.810;2023-04-24T07:42:53;12.1;73.3
78514;SHT31;67814;51.976;5.810;2023-04-24T07:45:22;12.0;74.0
78514;SHT31;67814;51.976;5.810;2023-04-24T07:47:53;11.9;73.3
78514;SHT31;67814;51.976;5.810;2023-04-24T07:50:23;11.8;74.2
78514;SHT31;67814;51.976;5.810;2023-04-24T07:52:53;11.7;74.4
78514;SHT31;67814;51.976;5.810;2023-04-24T07:55:22;11.7;75.5
78514;SHT31;67814;51.976;5.810;2023-04-24T07:57:52;11.6;75.5
78514;SHT31;67814;51.976;5.810;2023-04-24T08:00:24;11.6;75.3
78514;SHT31;67814;51.976;5.810;2023-04-24T08:02:53;11.6;74.6
78514;SHT31;67814;51.976;5.810;2023-04-24T08:05:23;11.5;73.7
78514;SHT31;67814;51.976;5.810;2023-04-24T08:07:55;11.4;74.4
78514;SHT31;67814;51.976;5.810;2023-04-24T08:10:27;11.4;74.6
78514;SHT31;67814;51.976;5.810;2023-04-24T08:12:59;11.4;74.1
78514;SHT31;67814;51.976;5.810;2023-04-24T08:15:31;11.3;75.1
78514;SHT31;67814;51.976;5.810;2023-04-24T08:18:00;11.3;75.4
78514;SHT31;67814;51.976;5.810;2023-04-24T08:20:30;11.3;75.4
78514;SHT31;67814;51.976;5.810;2023-04-24T08:23:01;11.2;75.1
78514;SHT31;67814;51.976;5.810;2023-04-24T08:25:31;11.2;75.2
78514;SHT31;67814;51.976;5.810;2023-04-24T08:28:06;11.2;74.7
78514;SHT31;67814;51.976;5.810;2023-04-24T08:30:36;11.2;75.4
78514;SHT31;67814;51.976;5.810;2023-04-24T08:33:05;11.2;75.6
78514;SHT31;67814;51.976;5.810;2023-04-24T08:35:37;11.2;75.6
78514;SHT31;67814;51.976;5.810;2023-04-24T08:38:07;11.2;75.5
78514;SHT31;67814;51.976;5.810;2023-04-24T08:40:36;11.3;75.5
78514;SHT31;67814;51.976;5.810;2023-04-24T08:43:09;11.3;77.0
78514;SHT31;67814;51.976;5.810;2023-04-24T08:45:39;11.3;76.0
78514;SHT31;67814;51.976;5.810;2023-04-24T08:48:09;11.3;75.1
78514;SHT31;67814;51.976;5.810;2023-04-24T08:50:40;11.4;75.3
78514;SHT31;67814;51.976;5.810;2023-04-24T08:53:12;11.4;75.7
78514;SHT31;67814;51.976;5.810;2023-04-24T08:55:43;11.4;74.3
78514;SHT31;67814;51.976;5.810;2023-04-24T08:58:16;11.4;73.0
78514;SHT31;67814;51.976;5.810;2023-04-24T09:00:46;11.3;72.1
78514;SHT31;67814;51.976;5.810;2023-04-24T09:03:17;11.3;72.4
78514;SHT31;67814;51.976;5.810;2023-04-24T09:05:50;11.2;74.9
78514;SHT31;67814;51.976;5.810;2023-04-24T09:08:24;11.2;74.6
78514;SHT31;67814;51.976;5.810;2023-04-24T09:10:54;11.1;75.4
78514;SHT31;67814;51.976;5.810;2023-04-24T09:13:28;11.1;74.4
78514;SHT31;67814;51.976;5.810;2023-04-24T09:16:00;11.2;74.7
78514;SHT31;67814;51.976;5.810;2023-04-24T09:18:29;11.2;74.3
78514;SHT31;67814;51.976;5.810;2023-04-24T09:21:02;11.2;73.4
78514;SHT31;67814;51.976;5.810;2023-04-24T09:23:34;11.2;74.9
78514;SHT31;67814;51.976;5.810;2023-04-24T09:26:05;11.2;74.5
78514;SHT31;67814;51.976;5.810;2023-04-24T09:28:36;11.2;74.2
78514;SHT31;67814;51.976;5.810;2023-04-24T09:31:08;11.2;74.8
78514;SHT31;67814;51.976;5.810;2023-04-24T09:33:38;11.2;72.8
78514;SHT31;67814;51.976;5.810;2023-04-24T09:36:08;11.3;73.8
78514;SHT31;67814;51.976;5.810;2023-04-24T09:38:38;11.3;73.7
78514;SHT31;67814;51.976;5.810;2023-04-24T09:41:15;11.3;74.9
78514;SHT31;67814;51.976;5.810;2023-04-24T09:43:44;11.4;73.1
78514;SHT31;67814;51.976;5.810;2023-04-24T09:46:14;11.5;73.0
78514;SHT31;67814;51.976;5.810;2023-04-24T09:48:43;11.6;71.9
78514;SHT31;67814;51.976;5.810;2023-04-24T09:51:13;11.7;71.0
78514;SHT31;67814;51.976;5.810;2023-04-24T09:53:47;11.8;71.6
78514;SHT31;67814;51.976;5.810;2023-04-24T09:56:17;11.9;71.8
78514;SHT31;67814;51.976;5.810;2023-04-24T09:58:47;12.0;68.5
78514;SHT31;67814;51.976;5.810;2023-04-24T10:01:31;12.0;68.0
78514;SHT31;67814;51.976;5.810;2023-04-24T10:04:01;12.0;67.7
78514;SHT31;67814;51.976;5.810;2023-04-24T10:06:33;12.0;68.7
78514;SHT31;67814;51.976;5.810;2023-04-24T10:09:03;12.1;70.3
78514;SHT31;67814;51.976;5.810;2023-04-24T10:11:34;12.2;68.3
78514;SHT31;67814;51.976;5.810;2023-04-24T10:14:04;12.2;70.1
78514;SHT31;67814;51.976;5.810;2023-04-24T10:16:35;12.4;69.8
78514;SHT31;67814;51.976;5.810;2023-04-24T10:19:04;12.5;69.1
78514;SHT31;67814;51.976;5.810;2023-04-24T10:21:35;12.6;67.7
78514;SHT31;67814;51.976;5.810;2023-04-24T10:24:10;12.7;66.2
78514;SHT31;67814;51.976;5.810;2023-04-24T10:26:42;12.9;67.7
78514;SHT31;67814;51.976;5.810;2023-04-24T10:29:13;13.0;67.3
78514;SHT31;67814;51.976;5.810;2023-04-24T10:31:44;13.1;67.6
78514;SHT31;67814;51.976;5.810;2023-04-24T10:34:17;13.3;64.7
78514;SHT31;67814;51.976;5.810;2023-04-24T10:36:50;13.4;62.2
78514;SHT31;67814;51.976;5.810;2023-04-24T10:39:21;13.5;60.8
78514;SHT31;67814;51.976;5.810;2023-04-24T10:41:53;13.6;61.3
78514;SHT31;67814;51.976;5.810;2023-04-24T10:44:25;13.6;60.1
78514;SHT31;67814;51.976;5.810;2023-04-24T10:46:55;13.6;61.6
78514;SHT31;67814;51.976;5.810;2023-04-24T10:49:30;13.7;59.0
78514;SHT31;67814;51.976;5.810;2023-04-24T10:52:02;13.7;58.5
78514;SHT31;67814;51.976;5.810;2023-04-24T10:54:36;13.7;60.3
78514;SHT31;67814;51.976;5.810;2023-04-24T10:57:29;13.7;59.2
78514;SHT31;67814;51.976;5.810;2023-04-24T11:00:21;13.7;61.3
78514;SHT31;67814;51.976;5.810;2023-04-24T11:02:52;13.7;58.8
78514;SHT31;67814;51.976;5.810;2023-04-24T11:08:26;13.7;57.3
78514;SHT31;67814;51.976;5.810;2023-04-24T11:11:01;13.7;57.5
78514;SHT31;67814;51.976;5.810;2023-04-24T11:14:02;13.6;57.5
78514;SHT31;67814;51.976;5.810;2023-04-24T11:16:35;13.6;58.9
78514;SHT31;67814;51.976;5.810;2023-04-24T11:19:08;13.5;59.4
78514;SHT31;67814;51.976;5.810;2023-04-24T11:21:43;13.5;58.2
78514;SHT31;67814;51.976;5.810;2023-04-24T11:24:27;13.5;57.9
78514;SHT31;67814;51.976;5.810;2023-04-24T11:26:58;13.6;57.7
78514;SHT31;67814;51.976;5.810;2023-04-24T11:29:48;13.6;56.7
78514;SHT31;67814;51.976;5.810;2023-04-24T11:32:23;13.6;59.4
78514;SHT31;67814;51.976;5.810;2023-04-24T11:34:54;13.6;58.3
78514;SHT31;67814;51.976;5.810;2023-04-24T11:37:27;13.7;57.1
78514;SHT31;67814;51.976;5.810;2023-04-24T11:39:58;13.7;59.3
78514;SHT31;67814;51.976;5.810;2023-04-24T11:42:29;13.7;59.0
78514;SHT31;67814;51.976;5.810;2023-04-24T11:45:10;13.8;57.9
78514;SHT31;67814;51.976;5.810;2023-04-24T11:47:40;13.8;58.7
78514;SHT31;67814;51.976;5.810;2023-04-24T11:50:12;13.9;56.2
78514;SHT31;67814;51.976;5.810;2023-04-24T11:52:45;13.9;55.9
78514;SHT31;67814;51.976;5.810;2023-04-24T11:55:25;13.9;55.3
78514;SHT31;67814;51.976;5.810;2023-04-24T11:57:57;13.9;55.5
78514;SHT31;67814;51.976;5.810;2023-04-24T12:00:30;13.9;57.0
78514;SHT31;67814;51.976;5.810;2023-04-24T12:03:09;13.8;57.2
78514;SHT31;67814;51.976;5.810;2023-04-24T12:05:39;13.8;57.5
78514;SHT31;67814;51.976;5.810;2023-04-24T12:08:09;13.7;59.2
78514;SHT31;67814;51.976;5.810;2023-04-24T12:10:39;13.6;60.2
78514;SHT31;67814;51.976;5.810;2023-04-24T12:13:09;13.5;60.1
78514;SHT31;67814;51.976;5.810;2023-04-24T12:15:40;13.4;62.1
78514;SHT31;67814;51.976;5.810;2023-04-24T12:18:12;13.3;63.4
78514;SHT31;67814;51.976;5.810;2023-04-24T12:20:44;13.3;62.4
78514;SHT31;67814;51.976;5.810;2023-04-24T12:23:13;13.2;60.8
78514;SHT31;67814;51.976;5.810;2023-04-24T12:25:43;13.2;62.0
78514;SHT31;67814;51.976;5.810;2023-04-24T12:28:13;13.2;59.3
78514;SHT31;67814;51.976;5.810;2023-04-24T12:30:43;13.2;61.2
78514;SHT31;67814;51.976;5.810;2023-04-24T12:33:18;13.2;59.7
78514;SHT31;67814;51.976;5.810;2023-04-24T12:35:51;13.2;61.6
78514;SHT31;67814;51.976;5.810;2023-04-24T12:38:25;13.3;61.5
78514;SHT31;67814;51.976;5.810;2023-04-24T12:41:04;13.4;61.0
78514;SHT31;67814;51.976;5.810;2023-04-24T12:43:35;13.5;59.1
78514;SHT31;67814;51.976;5.810;2023-04-24T12:46:05;13.6;58.6
78514;SHT31;67814;51.976;5.810;2023-04-24T12:48:34;13.7;58.0
78514;SHT31;67814;51.976;5.810;2023-04-24T12:51:06;13.7;56.2
78514;SHT31;67814;51.976;5.810;2023-04-24T12:53:36;13.8;57.3
78514;SHT31;67814;51.976;5.810;2023-04-24T12:56:06;13.8;58.1
78514;SHT31;67814;51.976;5.810;2023-04-24T12:58:36;13.8;56.1
78514;SHT31;67814;51.976;5.810;2023-04-24T13:01:05;13.8;56.5
78514;SHT31;67814;51.976;5.810;2023-04-24T13:03:35;13.9;56.3
78514;SHT31;67814;51.976;5.810;2023-04-24T13:06:07;13.9;56.4
78514;SHT31;67814;51.976;5.810;2023-04-24T13:08:38;13.9;58.0
78514;SHT31;67814;51.976;5.810;2023-04-24T13:11:08;13.9;56.7
78514;SHT31;67814;51.976;5.810;2023-04-24T13:13:38;14.0;55.8
78514;SHT31;67814;51.976;5.810;2023-04-24T13:16:09;14.0;55.0
78514;SHT31;67814;51.976;5.810;2023-04-24T13:18:39;14.0;55.9
78514;SHT31;67814;51.976;5.810;2023-04-24T13:21:09;14.0;55.5
78514;SHT31;67814;51.976;5.810;2023-04-24T13:23:38;14.1;54.4
78514;SHT31;67814;51.976;5.810;2023-04-24T13:26:08;14.1;54.2
78514;SHT31;67814;51.976;5.810;2023-04-24T13:28:38;14.1;55.2
78514;SHT31;67814;51.976;5.810;2023-04-24T13:31:08;14.1;54.3
78514;SHT31;67814;51.976;5.810;2023-04-24T13:33:39;14.1;53.7
78514;SHT31;67814;51.976;5.810;2023-04-24T13:36:09;14.1;53.1
78514;SHT31;67814;51.976;5.810;2023-04-24T13:38:39;14.0;54.3
78514;SHT31;67814;51.976;5.810;2023-04-24T13:41:08;14.0;53.6
78514;SHT31;67814;51.976;5.810;2023-04-24T13:43:38;14.0;52.5
78514;SHT31;67814;51.976;5.810;2023-04-24T13:46:09;13.9;54.5
78514;SHT31;67814;51.976;5.810;2023-04-24T13:48:38;13.9;53.9
78514;SHT31;67814;51.976;5.810;2023-04-24T13:51:08;13.9;53.2
78514;SHT31;67814;51.976;5.810;2023-04-24T13:53:38;13.9;55.0
78514;SHT31;67814;51.976;5.810;2023-04-24T13:56:07;13.9;54.0
78514;SHT31;67814;51.976;5.810;2023-04-24T13:58:40;13.9;56.5
78514;SHT31;67814;51.976;5.810;2023-04-24T14:01:11;13.9;54.1
78514;SHT31;67814;51.976;5.810;2023-04-24T14:03:42;14.0;52.3
78514;SHT31;67814;51.976;5.810;2023-04-24T14:06:12;14.0;52.4
78514;SHT31;67814;51.976;5.810;2023-04-24T14:08:42;14.1;51.5
78514;SHT31;67814;51.976;5.810;2023-04-24T14:11:12;14.1;52.3
78514;SHT31;67814;51.976;5.810;2023-04-24T14:13:43;14.2;51.8
78514;SHT31;67814;51.976;5.810;2023-04-24T14:16:13;14.2;49.9
78514;SHT31;67814;51.976;5.810;2023-04-24T14:18:43;14.3;51.6
78514;SHT31;67814;51.976;5.810;2023-04-24T14:21:13;14.3;51.9
78514;SHT31;67814;51.976;5.810;2023-04-24T14:23:45;14.4;51.0
78514;SHT31;67814;51.976;5.810;2023-04-24T14:26:16;14.4;50.2
78514;SHT31;67814;51.976;5.810;2023-04-24T14:28:46;14.4;50.0
78514;SHT31;67814;51.976;5.810;2023-04-24T14:31:15;14.5;51.0
78514;SHT31;67814;51.976;5.810;2023-04-24T14:33:45;14.6;48.2
78514;SHT31;67814;51.976;5.810;2023-04-24T14:36:17;14.6;47.4
78514;SHT31;67814;51.976;5.810;2023-04-24T14:38:47;14.6;47.9
78514;SHT31;67814;51.976;5.810;2023-04-24T14:41:16;14.6;46.4
78514;SHT31;67814;51.976;5.810;2023-04-24T14:43:46;14.6;46.5
78514;SHT31;67814;51.976;5.810;2023-04-24T14:46:16;14.6;46.7
78514;SHT31;67814;51.976;5.810;2023-04-24T14:48:45;14.6;47.9
78514;SHT31;67814;51.976;5.810;2023-04-24T14:51:15;14.6;46.9
78514;SHT31;67814;51.976;5.810;2023-04-24T14:53:44;14.6;46.6
78514;SHT31;67814;51.976;5.810;2023-04-24T14:56:15;14.6;45.7
78514;SHT31;67814;51.976;5.810;2023-04-24T14:58:45;14.6;44.6
78514;SHT31;67814;51.976;5.810;2023-04-24T15:01:14;14.6;45.6
78514;SHT31;67814;51.976;5.810;2023-04-24T15:03:45;14.5;45.3
78514;SHT31;67814;51.976;5.810;2023-04-24T15:06:15;14.5;47.1
78514;SHT31;67814;51.976;5.810;2023-04-24T15:08:44;14.5;46.5
78514;SHT31;67814;51.976;5.810;2023-04-24T15:11:16;14.4;47.5
78514;SHT31;67814;51.976;5.810;2023-04-24T15:13:46;14.4;47.0
78514;SHT31;67814;51.976;5.810;2023-04-24T15:16:15;14.4;45.8
78514;SHT31;67814;51.976;5.810;2023-04-24T15:18:45;14.4;46.5
78514;SHT31;67814;51.976;5.810;2023-04-24T15:21:15;14.3;45.9
78514;SHT31;67814;51.976;5.810;2023-04-24T15:23:44;14.2;46.0
78514;SHT31;67814;51.976;5.810;2023-04-24T15:26:14;14.1;47.9
78514;SHT31;67814;51.976;5.810;2023-04-24T15:28:43;14.0;49.0
78514;SHT31;67814;51.976;5.810;2023-04-24T15:31:14;14.0;46.5
78514;SHT31;67814;51.976;5.810;2023-04-24T15:33:45;13.9;47.4
78514;SHT31;67814;51.976;5.810;2023-04-24T15:36:17;13.9;47.4
78514;SHT31;67814;51.976;5.810;2023-04-24T15:38:49;13.9;48.3
78514;SHT31;67814;51.976;5.810;2023-04-24T15:41:19;13.8;49.9
78514;SHT31;67814;51.976;5.810;2023-04-24T15:43:48;13.8;50.0
78514;SHT31;67814;51.976;5.810;2023-04-24T15:46:20;13.8;49.6
78514;SHT31;67814;51.976;5.810;2023-04-24T15:48:51;13.8;50.3
78514;SHT31;67814;51.976;5.810;2023-04-24T15:51:22;13.9;50.5
78514;SHT31;67814;51.976;5.810;2023-04-24T15:53:51;13.9;50.1
78514;SHT31;67814;51.976;5.810;2023-04-24T15:56:21;13.9;49.5
78514;SHT31;67814;51.976;5.810;2023-04-24T15:58:51;13.9;48.7
78514;SHT31;67814;51.976;5.810;2023-04-24T16:01:20;13.9;50.1
78514;SHT31;67814;51.976;5.810;2023-04-24T16:03:52;13.9;49.5
78514;SHT31;67814;51.976;5.810;2023-04-24T16:06:21;14.0;48.7
78514;SHT31;67814;51.976;5.810;2023-04-24T16:08:53;14.0;49.5
78514;SHT31;67814;51.976;5.810;2023-04-24T16:11:23;14.1;50.4
78514;SHT31;67814;51.976;5.810;2023-04-24T16:13:53;14.1;49.8
78514;SHT31;67814;51.976;5.810;2023-04-24T16:16:22;14.1;49.6
78514;SHT31;67814;51.976;5.810;2023-04-24T16:18:52;14.1;51.9
78514;SHT31;67814;51.976;5.810;2023-04-24T16:21:23;14.1;52.7
78514;SHT31;67814;51.976;5.810;2023-04-24T16:23:53;14.1;51.4
78514;SHT31;67814;51.976;5.810;2023-04-24T16:26:22;14.1;51.6
78514;SHT31;67814;51.976;5.810;2023-04-24T16:28:52;14.1;50.6